Time;durP1;ratioP1;P1;durP2;ratioP2;P2;SDS_P1;SDS_P2;PMS_P1;PMS_P2;Temp;Humidity;BMP_temperature;BMP_pressure;BME280_temperature;BME280_humidity;BME280_pressure;Samples;Min_cycle;Max_cycle;Signal;HPM_P1;HPM_P2
2022/10/23 04:00:31;;;;;;;3.45;3.20;;;10.40;99.90;;;;;;6189323;22;21789;31
2022/10/23 04:02:57;;;;;;;4.03;2.72;;;10.40;99.90;;;;;;6180871;23;20177;-68
2022/10/23 04:05:24;;;;;;;5.00;3.15;;;10.40;99.90;;;;;;6182034;23;20185;-67
2022/10/23 04:07:51;;;;;;;4.88;4.50;;;10.30;99.90;;;;;;6182506;23;20285;-66
2022/10/23 04:10:17;;;;;;;4.00;3.63;;;10.30;99.90;;;;;;6181642;23;20661;-66
2022/10/23 04:12:44;;;;;;;3.70;3.40;;;10.40;99.90;;;;;;6179925;23;20196;-66
2022/10/23 04:15:11;;;;;;;11.35;4.10;;;10.30;99.90;;;;;;6182071;23;20676;-68
2022/10/23 04:17:39;;;;;;;3.28;2.97;;;10.30;99.90;;;;;;6182773;23;20181;-68
2022/10/23 04:20:06;;;;;;;4.50;3.38;;;10.30;99.90;;;;;;6182237;23;20181;-68
2022/10/23 04:22:33;;;;;;;2.25;2.15;;;10.30;99.90;;;;;;6182024;23;20218;-71
2022/10/23 04:24:59;;;;;;;3.40;2.65;;;10.30;99.90;;;;;;6181119;23;20191;-67
2022/10/23 04:27:26;;;;;;;7.60;2.95;;;10.20;99.90;;;;;;6179639;23;20281;-68
2022/10/23 04:29:53;;;;;;;3.50;3.20;;;10.20;99.90;;;;;;6182105;23;20196;-67
2022/10/23 04:32:19;;;;;;;4.35;3.10;;;10.20;99.90;;;;;;6181645;23;20217;-66
2022/10/23 04:34:47;;;;;;;5.20;4.07;;;10.20;99.90;;;;;;6154966;23;20181;-66
2022/10/23 04:37:14;;;;;;;3.72;3.35;;;10.10;99.90;;;;;;6181869;23;20494;-67
2022/10/23 04:39:41;;;;;;;2.97;2.75;;;10.10;99.90;;;;;;6181533;23;20191;-66
2022/10/23 04:42:07;;;;;;;2.90;2.70;;;10.10;99.90;;;;;;6180109;23;20205;-65
2022/10/23 04:44:34;;;;;;;4.00;3.55;;;10.00;99.90;;;;;;6181401;23;20189;-65
2022/10/23 04:47:01;;;;;;;3.58;3.38;;;10.00;99.90;;;;;;6182143;23;20181;-66
2022/10/23 04:49:27;;;;;;;2.45;2.30;;;10.00;99.90;;;;;;6180871;23;20186;-64
2022/10/23 04:51:55;;;;;;;2.78;2.55;;;10.00;99.90;;;;;;6179953;23;20217;-65
2022/10/23 04:54:22;;;;;;;4.70;4.05;;;10.10;99.90;;;;;;6182114;23;20192;-65
2022/10/23 04:56:49;;;;;;;3.05;2.60;;;10.10;99.90;;;;;;6182594;23;20185;-66
2022/10/23 04:59:16;;;;;;;6.38;2.85;;;10.10;99.90;;;;;;6182249;23;20193;-67
2022/10/23 05:01:42;;;;;;;3.70;3.45;;;10.00;99.90;;;;;;6181157;23;20367;-63
2022/10/23 05:04:09;;;;;;;3.58;3.28;;;10.00;99.90;;;;;;6181924;23;20203;-67
2022/10/23 05:06:36;;;;;;;4.68;3.45;;;10.00;99.90;;;;;;6181665;23;20185;-65
2022/10/23 05:09:04;;;;;;;5.85;3.25;;;10.00;99.90;;;;;;6181068;23;20185;-66
2022/10/23 05:11:30;;;;;;;3.78;2.67;;;10.00;99.90;;;;;;6179883;23;20209;-64
2022/10/23 05:13:57;;;;;;;3.78;3.35;;;10.00;99.90;;;;;;6181102;23;20185;-67
2022/10/23 05:16:33;;;;;;;3.25;2.97;;;10.00;99.90;;;;;;6181440;23;20714;-67
2022/10/23 05:19:00;;;;;;;3.30;2.90;;;10.00;99.90;;;;;;6181612;23;20176;-67
2022/10/23 05:21:31;;;;;;;7.78;3.78;;;10.00;99.90;;;;;;6181055;23;20201;-65
2022/10/23 05:23:59;;;;;;;4.55;3.50;;;10.00;99.90;;;;;;6180410;23;20589;-68
2022/10/23 05:26:27;;;;;;;3.08;2.88;;;10.00;99.90;;;;;;6181391;23;20185;-66
2022/10/23 05:28:53;;;;;;;3.15;2.88;;;10.00;99.90;;;;;;6181444;23;20297;-68
2022/10/23 05:31:21;;;;;;;4.78;4.07;;;10.00;99.90;;;;;;6180759;23;20212;-66
2022/10/23 05:33:48;;;;;;;2.85;2.72;;;10.00;99.90;;;;;;6181207;23;20186;-65
2022/10/23 05:36:16;;;;;;;2.75;2.53;;;10.00;99.90;;;;;;6181987;23;20185;-66
2022/10/23 05:38:44;;;;;;;2.95;2.60;;;10.00;99.90;;;;;;6183299;23;20513;-66
2022/10/23 05:41:11;;;;;;;3.40;3.10;;;10.00;99.90;;;;;;6192278;23;20193;-68
2022/10/23 05:43:39;;;;;;;2.42;2.20;;;9.90;99.90;;;;;;6183748;23;20189;-66
2022/10/23 05:46:06;;;;;;;9.63;4.03;;;10.00;99.90;;;;;;6183817;23;20185;-67
2022/10/23 05:48:33;;;;;;;5.25;3.60;;;9.90;99.90;;;;;;6183581;23;20280;-65
2022/10/23 05:51:05;;;;;;;5.05;2.42;;;9.90;99.90;;;;;;6180759;23;20205;-68
2022/10/23 05:53:32;;;;;;;4.25;4.05;;;9.90;99.90;;;;;;6180907;23;20203;-66
2022/10/23 05:56:04;;;;;;;5.70;3.63;;;10.00;99.90;;;;;;6184711;23;20192;-67
2022/10/23 05:58:30;;;;;;;3.38;3.10;;;10.00;99.90;;;;;;6185610;23;20176;-67
2022/10/23 06:00:58;;;;;;;4.90;3.03;;;10.00;99.90;;;;;;6184948;23;20209;-67
2022/10/23 06:03:25;;;;;;;7.60;5.38;;;10.00;99.90;;;;;;6185683;23;20182;-68
2022/10/23 06:05:52;;;;;;;4.80;4.05;;;10.00;99.90;;;;;;6185409;23;20612;-68
2022/10/23 06:08:19;;;;;;;6.97;4.50;;;10.00;99.90;;;;;;6183572;23;20183;-67
2022/10/23 06:10:46;;;;;;;4.93;3.30;;;10.00;99.90;;;;;;6183448;23;20205;-67
2022/10/23 06:13:12;;;;;;;5.15;3.20;;;10.00;99.90;;;;;;6182782;23;20224;-66
2022/10/23 06:15:39;;;;;;;8.68;4.40;;;10.00;99.90;;;;;;6184262;23;20181;-68
2022/10/23 06:18:07;;;;;;;5.20;3.60;;;10.00;99.90;;;;;;6183339;23;20181;-67
2022/10/23 06:20:36;;;;;;;6.68;2.80;;;10.00;99.90;;;;;;6180763;23;20322;-67
2022/10/23 06:23:03;;;;;;;6.70;4.00;;;10.00;99.90;;;;;;6183019;23;20182;-69
2022/10/23 06:25:30;;;;;;;4.25;3.95;;;10.10;99.90;;;;;;6183084;23;20207;-68
2022/10/23 06:27:56;;;;;;;4.00;3.70;;;10.10;99.90;;;;;;6182036;23;20182;-67
2022/10/23 06:30:23;;;;;;;3.42;3.10;;;10.10;99.90;;;;;;6182465;23;20186;-70
2022/10/23 06:32:50;;;;;;;4.60;2.67;;;10.10;99.90;;;;;;6180930;23;20251;-69
2022/10/23 06:35:18;;;;;;;3.58;3.28;;;10.10;99.90;;;;;;6182217;23;20386;-68
2022/10/23 06:37:45;;;;;;;3.50;3.28;;;10.20;99.90;;;;;;6183121;23;20188;-68
2022/10/23 06:40:12;;;;;;;6.63;4.80;;;10.20;99.90;;;;;;6181937;23;20185;-68
2022/10/23 06:42:39;;;;;;;9.55;3.60;;;10.20;99.90;;;;;;6181305;23;20180;-67
2022/10/23 06:45:06;;;;;;;6.88;4.35;;;10.10;99.90;;;;;;6182962;23;20648;-68
2022/10/23 06:47:33;;;;;;;3.95;3.45;;;10.10;99.90;;;;;;6182448;23;20189;-67
2022/10/23 06:50:00;;;;;;;8.80;4.43;;;10.20;99.90;;;;;;6182192;23;20189;-69
2022/10/23 06:52:30;;;;;;;4.68;4.30;;;10.20;99.90;;;;;;6182755;23;20206;-67
2022/10/23 06:54:57;;;;;;;4.97;3.30;;;10.20;99.90;;;;;;6181334;23;20239;-65
2022/10/23 06:57:23;;;;;;;5.43;3.85;;;10.20;99.90;;;;;;6182051;23;20184;-66
2022/10/23 06:59:50;;;;;;;6.47;3.20;;;10.30;99.90;;;;;;6182328;23;20236;-67
2022/10/23 07:02:17;;;;;;;5.07;3.03;;;10.30;99.90;;;;;;6182596;23;20213;-67
2022/10/23 07:04:43;;;;;;;4.85;4.45;;;10.30;99.90;;;;;;6181843;23;20192;-68
2022/10/23 07:07:10;;;;;;;9.93;4.30;;;10.30;99.90;;;;;;6182562;23;20196;-67
2022/10/23 07:09:38;;;;;;;7.30;3.55;;;10.40;99.90;;;;;;6182384;23;20193;-68
2022/10/23 07:12:05;;;;;;;4.65;4.25;;;10.40;99.90;;;;;;6183394;23;20213;-69
2022/10/23 07:14:32;;;;;;;3.92;3.38;;;10.40;99.90;;;;;;6183917;23;20187;-68
2022/10/23 07:16:59;;;;;;;5.47;3.67;;;10.40;99.90;;;;;;6191306;23;20185;-70
2022/10/23 07:19:25;;;;;;;4.80;3.67;;;10.50;99.90;;;;;;6203660;23;20185;-71
2022/10/23 07:21:52;;;;;;;3.58;3.22;;;10.60;99.90;;;;;;6207755;23;20189;-70
2022/10/23 07:24:19;;;;;;;6.28;3.50;;;10.80;99.90;;;;;;6209484;22;20184;-72
2022/10/23 07:26:47;;;;;;;6.75;4.65;;;10.90;99.90;;;;;;6209873;22;20173;-72
2022/10/23 07:29:14;;;;;;;15.63;3.80;;;11.00;99.90;;;;;;6210126;22;20260;-72
2022/10/23 07:31:40;;;;;;;10.93;3.75;;;11.00;99.90;;;;;;6208889;23;20238;-72
2022/10/23 07:34:07;;;;;;;5.07;4.30;;;11.10;99.90;;;;;;6208289;22;20171;-71
2022/10/23 07:36:34;;;;;;;5.10;4.53;;;11.10;99.90;;;;;;6200733;22;20196;-72
2022/10/23 07:39:01;;;;;;;6.93;4.30;;;11.00;99.90;;;;;;6208993;23;20176;-71
2022/10/23 07:41:27;;;;;;;6.45;3.50;;;11.00;99.90;;;;;;6206464;23;20202;-69
2022/10/23 07:43:55;;;;;;;4.22;3.92;;;11.10;99.90;;;;;;6189886;23;20463;-67
2022/10/23 07:46:22;;;;;;;11.90;3.92;;;11.10;99.90;;;;;;6186456;23;20183;-68
2022/10/23 07:48:49;;;;;;;23.80;4.47;;;11.10;99.90;;;;;;6184748;23;20179;-68
2022/10/23 07:51:16;;;;;;;8.57;3.45;;;11.10;99.90;;;;;;6183465;23;20206;-66
2022/10/23 07:53:43;;;;;;;6.55;4.85;;;11.10;99.90;;;;;;6181817;23;20209;-67
2022/10/23 07:56:13;;;;;;;4.55;2.92;;;11.20;99.90;;;;;;6183000;23;20181;-68
2022/10/23 07:58:40;;;;;;;8.45;3.97;;;11.20;99.90;;;;;;6183210;23;20535;-67
2022/10/23 08:01:17;;;;;;;11.15;3.83;;;11.30;99.90;;;;;;6182016;23;20217;-66
2022/10/23 08:03:45;;;;;;;4.88;4.15;;;11.30;99.90;;;;;;6181169;23;20558;-66
2022/10/23 08:06:11;;;;;;;6.18;4.10;;;11.40;99.90;;;;;;6181549;23;20192;-68
2022/10/23 08:08:38;;;;;;;5.28;4.18;;;11.40;99.90;;;;;;6181182;23;20242;-66
2022/10/23 08:11:05;;;;;;;3.63;3.42;;;11.40;99.90;;;;;;6181756;23;20203;-67
2022/10/23 08:13:32;;;;;;;4.40;3.80;;;11.50;99.90;;;;;;6181785;23;20207;-66
2022/10/23 08:15:59;;;;;;;7.38;3.65;;;11.60;99.90;;;;;;6182523;23;20187;-69
2022/10/23 08:18:27;;;;;;;5.22;4.18;;;11.60;99.90;;;;;;6182888;23;20184;-67
2022/10/23 08:20:53;;;;;;;5.57;4.07;;;11.70;99.90;;;;;;6182412;23;20648;-67
2022/10/23 08:23:20;;;;;;;7.88;4.03;;;11.70;99.90;;;;;;6180914;23;20179;-67
2022/10/23 08:25:47;;;;;;;6.18;4.35;;;11.80;99.90;;;;;;6182600;23;20187;-67
2022/10/23 08:28:15;;;;;;;5.47;4.45;;;11.90;99.90;;;;;;6180968;23;20215;-67
2022/10/23 08:30:42;;;;;;;3.88;3.58;;;11.90;99.90;;;;;;6180982;23;20211;-66
2022/10/23 08:33:09;;;;;;;4.68;4.10;;;12.00;99.90;;;;;;6181924;23;20220;-69
2022/10/23 08:35:38;;;;;;;5.43;3.33;;;12.00;99.90;;;;;;6180864;23;20244;-70
2022/10/23 08:38:05;;;;;;;4.47;4.13;;;12.10;99.90;;;;;;6181943;23;20194;-67
2022/10/23 08:40:32;;;;;;;3.90;3.60;;;12.10;99.90;;;;;;6180429;23;20219;-68
2022/10/23 08:43:02;;;;;;;3.22;3.00;;;12.20;99.90;;;;;;6180141;23;20216;-68
2022/10/23 08:45:35;;;;;;;3.80;3.57;;;12.30;99.90;;;;;;6181859;23;20172;-68
2022/10/23 08:48:09;;;;;;;5.72;4.70;;;12.30;99.90;;;;;;6182297;23;20745;-67
2022/10/23 08:50:42;;;;;;;5.20;4.70;;;12.40;99.90;;;;;;6182456;23;20204;-68
2022/10/23 08:53:16;;;;;;;4.95;4.55;;;12.50;99.90;;;;;;6182286;23;20435;-69
2022/10/23 08:55:46;;;;;;;5.78;3.63;;;12.60;99.90;;;;;;6182252;23;20172;-68
2022/10/23 08:58:18;;;;;;;8.10;4.70;;;12.70;99.90;;;;;;6181495;23;20192;-68
2022/10/23 09:00:47;;;;;;;4.27;3.97;;;12.80;99.90;;;;;;6180587;23;20458;-68
2022/10/23 09:03:15;;;;;;;6.60;4.07;;;12.90;99.90;;;;;;6181406;23;20408;-68
2022/10/23 09:06:04;;;;;;;2.67;2.50;;;13.00;99.90;;;;;;6180827;23;20427;-69
2022/10/23 09:08:44;;;;;;;3.30;3.10;;;13.10;99.90;;;;;;6181558;23;20493;-69
2022/10/23 09:11:17;;;;;;;4.87;3.27;;;13.10;99.90;;;;;;6181263;23;20502;-69
2022/10/23 09:14:03;;;;;;;5.93;4.70;;;13.20;99.90;;;;;;6181499;23;20432;-68
2022/10/23 09:16:43;;;;;;;3.27;3.07;;;13.30;99.90;;;;;;6180096;23;20408;-68
2022/10/23 09:19:14;;;;;;;2.87;2.67;;;13.40;99.90;;;;;;6180168;23;20419;-68
2022/10/23 09:21:45;;;;;;;3.60;3.33;;;13.40;99.90;;;;;;6181572;23;20451;-67
2022/10/23 09:24:16;;;;;;;4.60;3.63;;;13.50;99.90;;;;;;6181223;23;20412;-69
2022/10/23 09:26:47;;;;;;;3.00;2.80;;;13.60;99.90;;;;;;6181259;23;20409;-68
2022/10/23 09:29:21;;;;;;;5.70;3.07;;;13.70;99.90;;;;;;6181137;23;20408;-69
2022/10/23 09:31:49;;;;;;;2.57;2.37;;;13.80;99.90;;;;;;6181278;23;20507;-68
2022/10/23 09:34:19;;;;;;;2.60;2.40;;;13.90;99.90;;;;;;6180069;23;20451;-69
2022/10/23 09:36:52;;;;;;;2.67;2.47;;;14.00;99.90;;;;;;6181087;23;20410;-68
2022/10/23 09:39:24;;;;;;;2.33;2.33;;;14.10;99.90;;;;;;6180327;23;20420;-68
2022/10/23 09:41:51;;;;;;;2.00;1.90;;;14.20;99.90;;;;;;6181228;23;20470;-68
2022/10/23 09:44:21;;;;;;;2.57;2.37;;;14.30;99.90;;;;;;6181402;23;20421;-68
2022/10/23 09:46:50;;;;;;;2.17;2.07;;;14.40;99.90;;;;;;6190870;23;20424;-67
2022/10/23 09:49:18;;;;;;;2.73;2.70;;;14.40;99.90;;;;;;6180777;23;20755;-66
2022/10/23 09:51:58;;;;;;;3.20;2.53;;;14.50;99.90;;;;;;6181544;23;20936;-66
2022/10/23 09:54:25;;;;;;;2.20;1.87;;;14.60;99.90;;;;;;6180700;23;20432;-66
2022/10/23 09:56:54;;;;;;;2.30;2.20;;;14.60;99.90;;;;;;6179909;23;20433;-70
2022/10/23 09:59:25;;;;;;;2.53;2.40;;;14.70;99.90;;;;;;6179927;23;20433;-69
2022/10/23 10:01:55;;;;;;;5.73;2.50;;;14.80;99.90;;;;;;6181262;23;20482;-68
2022/10/23 10:04:32;;;;;;;2.80;2.70;;;14.90;99.90;;;;;;6183676;23;20426;-69
2022/10/23 10:07:03;;;;;;;2.37;2.23;;;14.90;99.90;;;;;;6186390;23;20457;-69
2022/10/23 10:09:30;;;;;;;7.73;2.90;;;15.00;99.90;;;;;;6186715;23;20418;-65
2022/10/23 10:12:19;;;;;;;8.23;3.00;;;15.10;99.90;;;;;;6186895;23;20947;-68
2022/10/23 10:15:00;;;;;;;2.50;1.53;;;15.10;99.90;;;;;;6188805;23;20469;-68
2022/10/23 10:17:37;;;;;;;6.63;1.53;;;15.20;99.90;;;;;;6186839;23;20407;-68
2022/10/23 10:20:21;;;;;;;1.33;1.33;;;15.30;99.90;;;;;;6185848;23;20414;-67
2022/10/23 10:22:54;;;;;;;1.77;1.77;;;15.30;99.90;;;;;;6187273;23;20398;-69
2022/10/23 10:25:28;;;;;;;1.97;1.97;;;15.40;99.90;;;;;;6187816;23;20520;-67
2022/10/23 10:28:07;;;;;;;1.00;1.00;;;15.50;99.90;;;;;;6186815;23;20427;-67
2022/10/23 10:30:42;;;;;;;2.03;1.87;;;15.60;99.90;;;;;;6188527;23;20442;-68
2022/10/23 10:33:16;;;;;;;2.10;2.00;;;15.60;99.90;;;;;;6185427;23;20604;-68
2022/10/23 10:35:52;;;;;;;2.00;1.90;;;15.60;99.90;;;;;;6181495;23;20414;-69
2022/10/23 10:38:41;;;;;;;2.97;1.77;;;15.70;99.90;;;;;;6181626;23;20488;-69
2022/10/23 10:41:34;;;;;;;2.10;2.00;;;15.80;99.90;;;;;;6182503;23;20447;-70
2022/10/23 10:44:14;;;;;;;2.00;2.00;;;15.80;99.90;;;;;;6179080;23;20430;-69
2022/10/23 10:46:46;;;;;;;2.17;2.17;;;15.90;99.90;;;;;;6182275;23;20414;-67
2022/10/23 10:49:18;;;;;;;2.03;2.00;;;15.90;99.90;;;;;;6183159;23;20425;-67
2022/10/23 10:51:56;;;;;;;1.93;1.80;;;15.90;99.90;;;;;;6183079;23;20443;-67
2022/10/23 10:54:39;;;;;;;2.90;1.83;;;16.00;99.90;;;;;;6182585;23;20458;-68
2022/10/23 10:57:14;;;;;;;2.53;1.97;;;16.00;99.90;;;;;;6181306;23;20414;-68
2022/10/23 10:59:44;;;;;;;4.00;2.57;;;16.00;99.90;;;;;;6182253;23;20424;-68
2022/10/23 11:02:25;;;;;;;1.60;1.60;;;16.00;99.90;;;;;;6182808;23;20475;-68
2022/10/23 11:04:57;;;;;;;1.60;1.60;;;16.10;99.90;;;;;;6182487;23;20408;-66
2022/10/23 11:07:28;;;;;;;1.90;1.80;;;16.10;99.90;;;;;;6181515;23;20418;-66
2022/10/23 11:10:00;;;;;;;2.43;2.00;;;16.10;99.90;;;;;;6181484;23;20414;-67
2022/10/23 11:12:28;;;;;;;1.77;1.63;;;16.10;99.90;;;;;;6181988;23;20446;-70
2022/10/23 11:14:56;;;;;;;1.50;1.50;;;16.20;99.90;;;;;;6181194;23;20458;-67
2022/10/23 11:17:27;;;;;;;1.70;1.70;;;16.30;99.90;;;;;;6181530;23;20451;-69
2022/10/23 11:20:01;;;;;;;1.27;1.27;;;16.20;99.90;;;;;;6181640;23;20411;-67
2022/10/23 11:22:34;;;;;;;1.60;1.60;;;16.30;99.90;;;;;;6182278;23;20442;-66
2022/10/23 11:25:31;;;;;;;1.53;1.53;;;16.40;99.90;;;;;;6181244;23;20422;-69
2022/10/23 11:28:13;;;;;;;2.73;2.53;;;16.40;99.90;;;;;;6181193;23;20413;-68
2022/10/23 11:30:55;;;;;;;1.00;1.00;;;16.40;99.90;;;;;;6181491;23;20441;-67
2022/10/23 11:33:58;;;;;;;1.67;1.67;;;16.50;99.90;;;;;;6180622;23;20486;-67
2022/10/23 11:36:42;;;;;;;1.20;1.20;;;16.50;99.90;;;;;;6177575;23;20919;-67
2022/10/23 11:39:26;;;;;;;1.13;1.13;;;16.50;99.90;;;;;;6181875;23;20404;-68
2022/10/23 11:41:57;;;;;;;0.80;0.80;;;16.60;99.90;;;;;;6181129;23;20445;-68
2022/10/23 11:44:40;;;;;;;0.90;0.90;;;16.60;99.90;;;;;;6182652;23;20400;-67
2022/10/23 11:47:27;;;;;;;0.60;0.60;;;16.60;99.90;;;;;;6182218;23;20406;-67
2022/10/23 11:50:15;;;;;;;1.20;1.20;;;16.70;99.90;;;;;;6181657;23;20404;-67
2022/10/23 11:52:54;;;;;;;1.27;1.27;;;16.70;99.90;;;;;;6180666;23;20408;-67
2022/10/23 11:55:24;;;;;;;0.93;0.80;;;16.80;99.90;;;;;;6180822;23;20406;-69
2022/10/23 11:58:21;;;;;;;3.90;1.60;;;16.80;99.90;;;;;;6181732;23;20754;-67
2022/10/23 12:00:55;;;;;;;0.83;0.83;;;16.90;99.90;;;;;;6162677;23;20961;-67
2022/10/23 12:03:27;;;;;;;4.20;1.87;;;17.00;99.90;;;;;;6181805;23;20484;-69
2022/10/23 12:06:00;;;;;;;0.90;0.90;;;17.00;99.90;;;;;;6181561;23;20404;-68
2022/10/23 12:08:28;;;;;;;1.20;1.20;;;17.00;99.90;;;;;;6179649;23;20407;-72
2022/10/23 12:10:55;;;;;;;1.40;1.07;;;16.90;99.90;;;;;;6181353;23;20447;-66
2022/10/23 12:13:47;;;;;;;1.13;0.70;;;17.00;99.90;;;;;;6180245;23;20450;-69
2022/10/23 12:16:14;;;;;;;0.83;0.83;;;17.00;99.90;;;;;;6165948;23;21014;-71
2022/10/23 12:18:52;;;;;;;2.17;2.17;;;17.00;99.90;;;;;;6181134;23;20906;-69
2022/10/23 12:21:26;;;;;;;1.00;1.00;;;17.10;99.90;;;;;;6180586;23;20443;-68
2022/10/23 12:24:22;;;;;;;1.07;0.50;;;17.10;99.90;;;;;;6180552;23;20485;-68
2022/10/23 12:27:00;;;;;;;0.77;0.77;;;17.10;99.90;;;;;;6181304;23;20492;-69
2022/10/23 12:29:40;;;;;;;0.90;0.90;;;17.10;99.90;;;;;;6181925;23;20403;-68
2022/10/23 12:32:22;;;;;;;0.93;0.83;;;17.10;99.90;;;;;;6181452;23;20439;-68
2022/10/23 12:35:18;;;;;;;0.67;0.67;;;17.10;99.90;;;;;;6181220;23;20490;-69
2022/10/23 12:37:56;;;;;;;1.20;1.20;;;17.20;99.90;;;;;;6181845;23;20735;-69
2022/10/23 12:40:28;;;;;;;0.70;0.70;;;17.20;99.90;;;;;;6180834;23;20411;-69
2022/10/23 12:42:56;;;;;;;1.07;1.07;;;17.20;99.90;;;;;;6180413;23;20406;-69
2022/10/23 12:45:27;;;;;;;0.73;0.73;;;17.20;99.90;;;;;;6180601;23;20519;-68
2022/10/23 12:47:54;;;;;;;3.90;1.43;;;17.20;99.90;;;;;;6181665;23;20431;-68
2022/10/23 12:50:23;;;;;;;1.53;1.07;;;17.20;99.90;;;;;;6181649;23;20430;-68
2022/10/23 12:52:55;;;;;;;1.50;0.60;;;17.20;99.90;;;;;;6182274;23;20933;-68
2022/10/23 12:55:22;;;;;;;0.60;0.60;;;17.20;99.90;;;;;;6182007;23;20404;-68
2022/10/23 12:57:50;;;;;;;0.70;0.70;;;17.20;99.90;;;;;;6181739;23;20426;-68
2022/10/23 13:00:19;;;;;;;0.67;0.67;;;17.30;99.90;;;;;;6180617;23;20918;-67
2022/10/23 13:02:58;;;;;;;1.33;1.33;;;17.30;99.90;;;;;;6182099;23;20408;-68
2022/10/23 13:05:26;;;;;;;0.80;0.80;;;17.40;99.90;;;;;;6181355;23;20407;-67
2022/10/23 13:07:53;;;;;;;4.13;1.60;;;17.40;99.90;;;;;;6181525;23;20441;-68
2022/10/23 13:10:22;;;;;;;1.27;1.27;;;17.40;99.90;;;;;;6180697;23;20435;-68
2022/10/23 13:12:54;;;;;;;1.17;0.50;;;17.40;99.90;;;;;;6180567;23;20935;-68
2022/10/23 13:15:22;;;;;;;4.10;1.30;;;17.40;99.90;;;;;;6182082;23;20435;-68
2022/10/23 13:18:03;;;;;;;0.90;0.90;;;17.40;99.90;;;;;;6181019;23;20427;-69
2022/10/23 13:20:33;;;;;;;3.60;0.70;;;17.40;99.90;;;;;;6180113;23;20412;-69
2022/10/23 13:23:08;;;;;;;0.50;0.50;;;17.40;99.90;;;;;;6180943;23;20878;-69
2022/10/23 13:25:36;;;;;;;2.93;0.90;;;17.40;99.90;;;;;;6180587;23;20536;-69
2022/10/23 13:28:13;;;;;;;0.90;0.90;;;17.30;99.90;;;;;;6180846;23;20702;-68
2022/10/23 13:30:42;;;;;;;1.27;1.17;;;17.30;99.90;;;;;;6180697;23;20942;-68
2022/10/23 13:33:23;;;;;;;0.57;0.57;;;17.30;99.90;;;;;;6180379;23;20426;-68
2022/10/23 13:35:57;;;;;;;1.47;1.37;;;17.30;99.90;;;;;;6181429;23;20408;-68
2022/10/23 13:38:29;;;;;;;0.80;0.80;;;17.20;99.90;;;;;;6180729;23;20435;-68
2022/10/23 13:40:57;;;;;;;0.93;0.93;;;17.20;99.90;;;;;;6181131;23;20929;-68
2022/10/23 13:43:25;;;;;;;1.20;1.20;;;17.20;99.90;;;;;;6180460;23;20441;-68
2022/10/23 13:45:52;;;;;;;0.80;0.80;;;17.20;99.90;;;;;;6181082;23;20424;-69
2022/10/23 13:48:20;;;;;;;0.87;0.87;;;17.20;99.90;;;;;;6179445;23;20426;-67
2022/10/23 13:50:47;;;;;;;1.30;1.30;;;17.10;99.90;;;;;;6179803;23;20453;-68
2022/10/23 13:53:14;;;;;;;1.00;1.00;;;17.10;99.90;;;;;;6179733;23;20476;-68
2022/10/23 13:55:44;;;;;;;0.70;0.70;;;17.10;99.90;;;;;;6180633;23;20428;-68
2022/10/23 13:58:11;;;;;;;1.23;1.23;;;17.00;99.90;;;;;;6181146;23;20423;-71
2022/10/23 14:00:38;;;;;;;0.90;0.90;;;17.00;99.90;;;;;;6181476;23;20456;-69
2022/10/23 14:03:05;;;;;;;1.20;1.17;;;17.00;99.90;;;;;;6182580;23;20407;-67
2022/10/23 14:05:34;;;;;;;3.30;1.13;;;16.90;99.90;;;;;;6182555;23;20430;-67
2022/10/23 14:08:00;;;;;;;1.17;1.17;;;16.90;99.90;;;;;;6182303;23;21077;-65
2022/10/23 14:10:27;;;;;;;1.13;1.13;;;17.00;99.90;;;;;;6182189;23;20428;-67
2022/10/23 14:12:54;;;;;;;1.10;1.10;;;16.90;99.90;;;;;;6181644;23;20857;-66
2022/10/23 14:15:21;;;;;;;1.53;1.40;;;16.90;99.90;;;;;;6182700;23;20478;-67
2022/10/23 14:17:47;;;;;;;0.80;0.80;;;16.90;99.90;;;;;;6181971;23;20424;-66
2022/10/23 14:20:14;;;;;;;1.63;1.50;;;16.90;99.90;;;;;;6183017;23;20428;-68
2022/10/23 14:22:42;;;;;;;1.10;1.10;;;16.80;99.90;;;;;;6182219;23;20891;-68
2022/10/23 14:25:09;;;;;;;1.60;1.60;;;16.80;99.90;;;;;;6182182;23;20434;-68
2022/10/23 14:27:36;;;;;;;0.90;0.90;;;16.80;99.90;;;;;;6181523;23;20423;-68
2022/10/23 14:30:03;;;;;;;1.13;1.00;;;16.70;99.90;;;;;;6182655;23;20434;-67
2022/10/23 14:32:30;;;;;;;1.80;1.23;;;16.70;99.90;;;;;;6182229;23;20956;-68
2022/10/23 14:34:57;;;;;;;6.17;1.77;;;16.70;99.90;;;;;;6182592;23;20520;-68
2022/10/23 14:37:24;;;;;;;0.93;0.93;;;16.60;99.90;;;;;;6183024;23;20463;-68
2022/10/23 14:39:52;;;;;;;1.57;1.47;;;16.60;99.90;;;;;;6181016;23;20454;-68
2022/10/23 14:42:18;;;;;;;1.30;1.30;;;16.60;99.90;;;;;;6181824;23;20443;-68
2022/10/23 14:44:45;;;;;;;1.07;1.07;;;16.50;99.90;;;;;;6182413;23;20406;-68
2022/10/23 14:47:12;;;;;;;1.47;1.47;;;16.50;99.90;;;;;;6182515;23;20437;-68
2022/10/23 14:49:40;;;;;;;0.77;0.77;;;16.50;99.90;;;;;;6181979;23;20425;-68
2022/10/23 14:52:06;;;;;;;1.53;1.53;;;16.50;99.90;;;;;;6182227;23;20552;-68
2022/10/23 14:54:35;;;;;;;1.30;1.30;;;16.50;99.90;;;;;;6181670;23;20768;-68
2022/10/23 14:57:03;;;;;;;1.10;1.10;;;16.50;99.90;;;;;;6182644;23;20455;-68
2022/10/23 14:59:30;;;;;;;1.23;1.23;;;16.40;99.90;;;;;;6182836;23;20434;-68
2022/10/23 15:01:57;;;;;;;1.27;1.27;;;16.40;99.90;;;;;;6181908;23;20508;-67
2022/10/23 15:04:24;;;;;;;1.13;1.03;;;16.30;99.90;;;;;;6182301;23;20461;-66
2022/10/23 15:06:51;;;;;;;1.07;1.07;;;16.30;99.90;;;;;;6184763;23;20424;-68
2022/10/23 15:09:18;;;;;;;1.37;1.30;;;16.30;99.90;;;;;;6189137;23;20514;-68
2022/10/23 15:11:45;;;;;;;1.93;1.70;;;16.20;99.90;;;;;;6189557;23;20535;-68
2022/10/23 15:14:13;;;;;;;1.30;1.20;;;16.30;99.90;;;;;;6188607;23;20448;-67
2022/10/23 15:16:40;;;;;;;3.80;1.33;;;16.20;99.90;;;;;;6188568;23;20417;-66
2022/10/23 15:19:08;;;;;;;1.47;1.43;;;16.20;99.90;;;;;;6187760;23;20422;-68
2022/10/23 15:21:34;;;;;;;3.80;2.07;;;16.20;99.90;;;;;;6185577;23;20442;-67
2022/10/23 15:24:02;;;;;;;1.13;1.13;;;16.10;99.90;;;;;;6184937;23;20418;-67
2022/10/23 15:26:28;;;;;;;4.73;1.40;;;16.10;99.90;;;;;;6182147;23;20485;-67
2022/10/23 15:28:56;;;;;;;1.00;1.00;;;16.10;99.90;;;;;;6182104;23;20727;-67
2022/10/23 15:31:40;;;;;;;1.50;1.50;;;16.00;99.90;;;;;;6181999;23;20442;-68
2022/10/23 15:34:08;;;;;;;1.80;1.70;;;16.00;99.90;;;;;;6181095;23;20439;-67
2022/10/23 15:36:35;;;;;;;1.50;1.50;;;16.00;99.90;;;;;;6181992;23;20426;-67
2022/10/23 15:39:05;;;;;;;2.20;2.10;;;15.90;99.90;;;;;;6181260;23;20423;-67
2022/10/23 15:41:34;;;;;;;1.27;1.27;;;15.90;99.90;;;;;;6182248;23;20466;-68
2022/10/23 15:44:01;;;;;;;1.93;1.83;;;15.90;99.90;;;;;;6181181;23;20441;-68
2022/10/23 15:46:29;;;;;;;9.90;1.90;;;15.90;99.90;;;;;;6182398;23;20430;-66
2022/10/23 15:48:56;;;;;;;4.17;1.70;;;15.90;99.90;;;;;;6182268;23;20423;-67
2022/10/23 15:51:23;;;;;;;1.30;1.20;;;15.90;99.90;;;;;;6181570;23;20452;-67
2022/10/23 15:53:50;;;;;;;1.73;1.73;;;15.80;99.90;;;;;;6179796;23;20434;-67
2022/10/23 15:56:17;;;;;;;2.60;2.10;;;15.80;99.90;;;;;;6181523;23;20424;-67
2022/10/23 15:58:43;;;;;;;4.07;1.57;;;15.80;99.90;;;;;;6181828;23;20838;-68
2022/10/23 16:01:10;;;;;;;1.63;1.63;;;15.70;99.90;;;;;;6181009;23;20456;-69
2022/10/23 16:03:38;;;;;;;1.10;1.10;;;15.70;99.90;;;;;;6181249;23;20421;-67
2022/10/23 16:06:07;;;;;;;2.53;1.50;;;15.70;99.90;;;;;;6182407;23;20417;-67
2022/10/23 16:08:33;;;;;;;1.57;1.57;;;15.70;99.90;;;;;;6180837;23;20425;-68
2022/10/23 16:11:00;;;;;;;2.00;1.90;;;15.70;99.90;;;;;;6181463;23;20452;-68
2022/10/23 16:13:27;;;;;;;1.40;1.30;;;15.60;99.90;;;;;;6181430;23;20924;-66
2022/10/23 16:15:54;;;;;;;2.67;1.50;;;15.60;99.90;;;;;;6181262;23;20993;-68
2022/10/23 16:18:22;;;;;;;2.10;1.90;;;15.60;99.90;;;;;;6182078;23;20475;-68
2022/10/23 16:20:53;;;;;;;3.27;1.50;;;15.60;99.90;;;;;;6182123;23;20475;-68
2022/10/23 16:23:20;;;;;;;3.10;1.10;;;15.50;99.90;;;;;;6181044;23;20504;-70
2022/10/23 16:25:47;;;;;;;2.20;1.33;;;15.60;99.90;;;;;;6181611;23;20927;-69
2022/10/23 16:28:14;;;;;;;1.40;1.30;;;15.60;99.90;;;;;;6180643;23;20435;-67
2022/10/23 16:30:41;;;;;;;1.67;1.60;;;15.60;99.90;;;;;;6180752;23;20445;-68
2022/10/23 16:33:08;;;;;;;1.70;1.70;;;15.60;99.90;;;;;;6179270;23;20420;-68
2022/10/23 16:35:35;;;;;;;1.10;1.10;;;15.50;99.90;;;;;;6180681;23;20453;-68
2022/10/23 16:38:03;;;;;;;1.03;1.03;;;15.50;99.90;;;;;;6182070;23;20433;-69
2022/10/23 16:40:30;;;;;;;8.50;1.50;;;15.50;99.90;;;;;;6181805;23;20425;-69
2022/10/23 16:42:58;;;;;;;1.20;1.20;;;15.50;99.90;;;;;;6182067;23;20428;-68
2022/10/23 16:45:25;;;;;;;1.40;1.40;;;15.40;99.90;;;;;;6182488;23;20421;-69
2022/10/23 16:47:51;;;;;;;3.13;1.70;;;15.40;99.90;;;;;;6182552;23;20425;-68
2022/10/23 16:50:18;;;;;;;2.00;1.90;;;15.40;99.90;;;;;;6182088;23;20425;-68
2022/10/23 16:52:45;;;;;;;1.57;1.57;;;15.40;99.90;;;;;;6181734;23;20432;-67
2022/10/23 16:55:13;;;;;;;2.30;2.20;;;15.40;99.90;;;;;;6181206;23;20443;-69
2022/10/23 16:57:39;;;;;;;2.20;2.20;;;15.40;99.90;;;;;;6181799;23;20426;-68
2022/10/23 17:00:07;;;;;;;1.00;1.00;;;15.40;99.90;;;;;;6182519;23;20432;-70
2022/10/23 17:02:34;;;;;;;2.40;2.40;;;15.50;99.90;;;;;;6180974;23;20463;-69